sensor_id;sensor_type;location;lat;lon;timestamp;temperature;humidity
57709;SHT35;42558;52.388;13.390;2023-01-24T00:02:13;1.15;85.32
57709;SHT35;42558;52.388;13.390;2023-01-24T00:04:43;1.16;85.36
57709;SHT35;42558;52.388;13.390;2023-01-24T00:07:13;1.15;85.35
57709;SHT35;42558;52.388;13.390;2023-01-24T00:09:43;1.13;85.35
57709;SHT35;42558;52.388;13.390;2023-01-24T00:12:15;1.14;85.40
57709;SHT35;42558;52.388;13.390;2023-01-24T00:14:43;1.15;85.41
57709;SHT35;42558;52.388;13.390;2023-01-24T00:17:13;1.13;85.31
57709;SHT35;42558;52.388;13.390;2023-01-24T00:19:43;1.11;85.29
57709;SHT35;42558;52.388;13.390;2023-01-24T00:22:13;1.09;85.33
57709;SHT35;42558;52.388;13.390;2023-01-24T00:24:43;1.09;85.41
57709;SHT35;42558;52.388;13.390;2023-01-24T00:27:13;1.04;85.38
57709;SHT35;42558;52.388;13.390;2023-01-24T00:29:43;1.02;85.38
57709;SHT35;42558;52.388;13.390;2023-01-24T00:32:13;1.04;85.21
57709;SHT35;42558;52.388;13.390;2023-01-24T00:34:43;1.02;85.16
57709;SHT35;42558;52.388;13.390;2023-01-24T00:37:12;1.01;85.11
57709;SHT35;42558;52.388;13.390;2023-01-24T00:39:42;0.95;85.01
57709;SHT35;42558;52.388;13.390;2023-01-24T00:42:12;0.94;84.98
57709;SHT35;42558;52.388;13.390;2023-01-24T00:44:46;0.97;84.96
57709;SHT35;42558;52.388;13.390;2023-01-24T00:47:13;0.96;84.91
57709;SHT35;42558;52.388;13.390;2023-01-24T00:49:43;0.96;84.99
57709;SHT35;42558;52.388;13.390;2023-01-24T00:52:13;0.93;84.89
57709;SHT35;42558;52.388;13.390;2023-01-24T00:54:43;0.88;84.74
57709;SHT35;42558;52.388;13.390;2023-01-24T00:57:13;0.87;84.81
57709;SHT35;42558;52.388;13.390;2023-01-24T00:59:42;0.89;84.92
57709;SHT35;42558;52.388;13.390;2023-01-24T01:02:12;0.89;84.86
57709;SHT35;42558;52.388;13.390;2023-01-24T01:04:42;0.86;84.87
57709;SHT35;42558;52.388;13.390;2023-01-24T01:07:12;0.87;84.89
57709;SHT35;42558;52.388;13.390;2023-01-24T01:09:41;0.90;84.97
57709;SHT35;42558;52.388;13.390;2023-01-24T01:12:13;0.89;84.95
57709;SHT35;42558;52.388;13.390;2023-01-24T01:14:44;0.88;84.90
57709;SHT35;42558;52.388;13.390;2023-01-24T01:17:13;0.85;84.90
57709;SHT35;42558;52.388;13.390;2023-01-24T01:19:44;0.82;85.16
57709;SHT35;42558;52.388;13.390;2023-01-24T01:22:14;0.78;85.16
57709;SHT35;42558;52.388;13.390;2023-01-24T01:24:44;0.78;85.16
57709;SHT35;42558;52.388;13.390;2023-01-24T01:27:13;0.78;85.11
57709;SHT35;42558;52.388;13.390;2023-01-24T01:29:43;0.78;85.14
57709;SHT35;42558;52.388;13.390;2023-01-24T01:32:13;0.75;85.11
57709;SHT35;42558;52.388;13.390;2023-01-24T01:34:43;0.75;85.24
57709;SHT35;42558;52.388;13.390;2023-01-24T01:37:12;0.75;85.30
57709;SHT35;42558;52.388;13.390;2023-01-24T01:39:42;0.74;85.13
57709;SHT35;42558;52.388;13.390;2023-01-24T01:42:13;0.72;85.01
57709;SHT35;42558;52.388;13.390;2023-01-24T01:44:47;0.72;85.01
57709;SHT35;42558;52.388;13.390;2023-01-24T01:52:52;0.68;85.00
57709;SHT35;42558;52.388;13.390;2023-01-24T01:55:21;0.68;85.00
57709;SHT35;42558;52.388;13.390;2023-01-24T01:57:57;0.68;84.79
57709;SHT35;42558;52.388;13.390;2023-01-24T02:00:29;0.62;84.52
57709;SHT35;42558;52.388;13.390;2023-01-24T02:03:01;0.64;84.55
57709;SHT35;42558;52.388;13.390;2023-01-24T02:05:57;0.62;84.17
57709;SHT35;42558;52.388;13.390;2023-01-24T02:08:27;0.62;84.24
57709;SHT35;42558;52.388;13.390;2023-01-24T02:10:59;0.64;84.37
57709;SHT35;42558;52.388;13.390;2023-01-24T02:13:48;0.65;84.16
57709;SHT35;42558;52.388;13.390;2023-01-24T02:16:38;0.65;84.07
57709;SHT35;42558;52.388;13.390;2023-01-24T02:19:10;0.62;83.74
57709;SHT35;42558;52.388;13.390;2023-01-24T02:21:53;0.63;83.54
57709;SHT35;42558;52.388;13.390;2023-01-24T02:24:42;0.65;83.56
57709;SHT35;42558;52.388;13.390;2023-01-24T02:27:25;0.58;82.91
57709;SHT35;42558;52.388;13.390;2023-01-24T02:29:56;0.55;82.82
57709;SHT35;42558;52.388;13.390;2023-01-24T02:32:27;0.53;82.50
57709;SHT35;42558;52.388;13.390;2023-01-24T02:34:56;0.54;82.39
57709;SHT35;42558;52.388;13.390;2023-01-24T02:37:24;0.47;82.05
57709;SHT35;42558;52.388;13.390;2023-01-24T02:39:54;0.46;81.97
57709;SHT35;42558;52.388;13.390;2023-01-24T02:42:32;0.44;81.96
57709;SHT35;42558;52.388;13.390;2023-01-24T02:47:56;0.45;81.81
57709;SHT35;42558;52.388;13.390;2023-01-24T02:50:28;0.44;81.84
57709;SHT35;42558;52.388;13.390;2023-01-24T02:53:20;0.42;81.88
57709;SHT35;42558;52.388;13.390;2023-01-24T02:56:04;0.43;81.82
57709;SHT35;42558;52.388;13.390;2023-01-24T02:58:55;0.42;82.07
57709;SHT35;42558;52.388;13.390;2023-01-24T03:01:25;0.41;82.45
57709;SHT35;42558;52.388;13.390;2023-01-24T03:03:54;0.41;82.61
57709;SHT35;42558;52.388;13.390;2023-01-24T03:06:25;0.41;82.66
57709;SHT35;42558;52.388;13.390;2023-01-24T03:08:54;0.39;82.75
57709;SHT35;42558;52.388;13.390;2023-01-24T03:11:22;0.41;82.96
57709;SHT35;42558;52.388;13.390;2023-01-24T03:13:50;0.40;82.94
57709;SHT35;42558;52.388;13.390;2023-01-24T03:16:37;0.40;83.00
57709;SHT35;42558;52.388;13.390;2023-01-24T03:19:24;0.38;83.20
57709;SHT35;42558;52.388;13.390;2023-01-24T03:22:13;0.37;83.27
57709;SHT35;42558;52.388;13.390;2023-01-24T03:25:01;0.42;83.48
57709;SHT35;42558;52.388;13.390;2023-01-24T03:27:50;0.45;83.48
57709;SHT35;42558;52.388;13.390;2023-01-24T03:30:38;0.45;83.40
57709;SHT35;42558;52.388;13.390;2023-01-24T03:33:27;0.42;83.34
57709;SHT35;42558;52.388;13.390;2023-01-24T03:36:15;0.46;83.38
57709;SHT35;42558;52.388;13.390;2023-01-24T03:38:46;0.44;83.33
57709;SHT35;42558;52.388;13.390;2023-01-24T03:41:35;0.39;83.03
57709;SHT35;42558;52.388;13.390;2023-01-24T03:44:05;0.38;82.85
57709;SHT35;42558;52.388;13.390;2023-01-24T03:46:33;0.38;82.85
57709;SHT35;42558;52.388;13.390;2023-01-24T03:49:09;0.37;82.95
57709;SHT35;42558;52.388;13.390;2023-01-24T03:51:38;0.37;82.97
57709;SHT35;42558;52.388;13.390;2023-01-24T03:54:27;0.42;83.09
57709;SHT35;42558;52.388;13.390;2023-01-24T03:56:57;0.42;82.77
57709;SHT35;42558;52.388;13.390;2023-01-24T03:59:27;0.38;82.41
57709;SHT35;42558;52.388;13.390;2023-01-24T04:01:56;0.37;82.30
57709;SHT35;42558;52.388;13.390;2023-01-24T04:04:26;0.29;81.60
57709;SHT35;42558;52.388;13.390;2023-01-24T04:07:16;0.29;81.37
57709;SHT35;42558;52.388;13.390;2023-01-24T04:09:55;0.31;81.35
57709;SHT35;42558;52.388;13.390;2023-01-24T04:12:27;0.33;81.37
57709;SHT35;42558;52.388;13.390;2023-01-24T04:14:57;0.28;80.83
57709;SHT35;42558;52.388;13.390;2023-01-24T04:17:27;0.25;80.80
57709;SHT35;42558;52.388;13.390;2023-01-24T04:19:56;0.27;80.90
57709;SHT35;42558;52.388;13.390;2023-01-24T04:22:26;0.26;80.99
57709;SHT35;42558;52.388;13.390;2023-01-24T04:24:56;0.27;81.25
57709;SHT35;42558;52.388;13.390;2023-01-24T04:27:26;0.26;81.21
57709;SHT35;42558;52.388;13.390;2023-01-24T04:29:56;0.20;81.09
57709;SHT35;42558;52.388;13.390;2023-01-24T04:32:26;0.20;81.00
57709;SHT35;42558;52.388;13.390;2023-01-24T04:34:58;0.19;80.90
57709;SHT35;42558;52.388;13.390;2023-01-24T04:37:28;0.21;80.81
57709;SHT35;42558;52.388;13.390;2023-01-24T04:39:58;0.22;80.98
57709;SHT35;42558;52.388;13.390;2023-01-24T04:42:30;0.21;81.12
57709;SHT35;42558;52.388;13.390;2023-01-24T04:45:00;0.17;80.97
57709;SHT35;42558;52.388;13.390;2023-01-24T04:47:30;0.20;81.13
57709;SHT35;42558;52.388;13.390;2023-01-24T04:50:00;0.19;81.18
57709;SHT35;42558;52.388;13.390;2023-01-24T04:52:30;0.21;81.31
57709;SHT35;42558;52.388;13.390;2023-01-24T04:54:59;0.23;81.27
57709;SHT35;42558;52.388;13.390;2023-01-24T04:57:29;0.22;81.24
57709;SHT35;42558;52.388;13.390;2023-01-24T04:59:59;0.21;81.34
57709;SHT35;42558;52.388;13.390;2023-01-24T05:02:29;0.23;81.51
57709;SHT35;42558;52.388;13.390;2023-01-24T05:04:59;0.21;81.27
57709;SHT35;42558;52.388;13.390;2023-01-24T05:07:29;0.20;81.32
57709;SHT35;42558;52.388;13.390;2023-01-24T05:09:59;0.18;81.25
57709;SHT35;42558;52.388;13.390;2023-01-24T05:12:29;0.19;81.23
57709;SHT35;42558;52.388;13.390;2023-01-24T05:14:59;0.22;81.52
57709;SHT35;42558;52.388;13.390;2023-01-24T05:17:28;0.18;81.41
57709;SHT35;42558;52.388;13.390;2023-01-24T05:19:58;0.18;81.25
57709;SHT35;42558;52.388;13.390;2023-01-24T05:22:28;0.19;81.23
57709;SHT35;42558;52.388;13.390;2023-01-24T05:24:58;0.22;81.37
57709;SHT35;42558;52.388;13.390;2023-01-24T05:27:28;0.25;81.57
57709;SHT35;42558;52.388;13.390;2023-01-24T05:29:56;0.22;81.22
57709;SHT35;42558;52.388;13.390;2023-01-24T05:32:26;0.25;81.35
57709;SHT35;42558;52.388;13.390;2023-01-24T05:34:56;0.27;81.29
57709;SHT35;42558;52.388;13.390;2023-01-24T05:37:24;0.28;81.36
57709;SHT35;42558;52.388;13.390;2023-01-24T05:39:53;0.27;81.20
57709;SHT35;42558;52.388;13.390;2023-01-24T05:42:21;0.26;81.27
57709;SHT35;42558;52.388;13.390;2023-01-24T05:44:50;0.27;81.38
57709;SHT35;42558;52.388;13.390;2023-01-24T05:47:18;0.27;81.20
57709;SHT35;42558;52.388;13.390;2023-01-24T05:49:47;0.26;81.14
57709;SHT35;42558;52.388;13.390;2023-01-24T05:52:15;0.23;81.05
57709;SHT35;42558;52.388;13.390;2023-01-24T05:54:50;0.23;81.18
57709;SHT35;42558;52.388;13.390;2023-01-24T05:57:21;0.27;81.39
57709;SHT35;42558;52.388;13.390;2023-01-24T05:59:51;0.28;81.17
57709;SHT35;42558;52.388;13.390;2023-01-24T06:02:20;0.28;81.18
57709;SHT35;42558;52.388;13.390;2023-01-24T06:04:50;0.31;81.31
57709;SHT35;42558;52.388;13.390;2023-01-24T06:07:20;0.31;81.30
57709;SHT35;42558;52.388;13.390;2023-01-24T06:09:50;0.28;81.35
57709;SHT35;42558;52.388;13.390;2023-01-24T06:12:20;0.32;81.48
57709;SHT35;42558;52.388;13.390;2023-01-24T06:14:50;0.31;81.43
57709;SHT35;42558;52.388;13.390;2023-01-24T06:17:20;0.27;81.43
57709;SHT35;42558;52.388;13.390;2023-01-24T06:19:50;0.25;81.47
57709;SHT35;42558;52.388;13.390;2023-01-24T06:22:22;0.24;81.57
57709;SHT35;42558;52.388;13.390;2023-01-24T06:25:19;0.25;81.60
57709;SHT35;42558;52.388;13.390;2023-01-24T06:27:54;0.24;81.66
57709;SHT35;42558;52.388;13.390;2023-01-24T06:30:25;0.24;81.81
57709;SHT35;42558;52.388;13.390;2023-01-24T06:38:21;0.24;81.68
57709;SHT35;42558;52.388;13.390;2023-01-24T06:40:57;0.23;81.60
57709;SHT35;42558;52.388;13.390;2023-01-24T06:43:31;0.20;81.60
57709;SHT35;42558;52.388;13.390;2023-01-24T06:46:01;0.21;81.79
57709;SHT35;42558;52.388;13.390;2023-01-24T06:48:30;0.23;81.80
57709;SHT35;42558;52.388;13.390;2023-01-24T06:51:00;0.24;81.86
57709;SHT35;42558;52.388;13.390;2023-01-24T06:53:33;0.24;81.86
57709;SHT35;42558;52.388;13.390;2023-01-24T06:56:03;0.27;81.80
57709;SHT35;42558;52.388;13.390;2023-01-24T06:58:34;0.30;81.81
57709;SHT35;42558;52.388;13.390;2023-01-24T07:01:04;0.33;81.72
57709;SHT35;42558;52.388;13.390;2023-01-24T07:03:34;0.28;81.33
57709;SHT35;42558;52.388;13.390;2023-01-24T07:06:04;0.30;81.52
57709;SHT35;42558;52.388;13.390;2023-01-24T07:08:34;0.29;81.65
57709;SHT35;42558;52.388;13.390;2023-01-24T07:11:04;0.30;81.55
57709;SHT35;42558;52.388;13.390;2023-01-24T07:13:34;0.30;81.47
57709;SHT35;42558;52.388;13.390;2023-01-24T07:16:04;0.30;81.62
57709;SHT35;42558;52.388;13.390;2023-01-24T07:18:34;0.32;81.59
57709;SHT35;42558;52.388;13.390;2023-01-24T07:21:06;0.31;81.44
57709;SHT35;42558;52.388;13.390;2023-01-24T07:23:37;0.32;81.51
57709;SHT35;42558;52.388;13.390;2023-01-24T07:26:15;0.28;81.21
57709;SHT35;42558;52.388;13.390;2023-01-24T07:28:45;0.31;81.38
57709;SHT35;42558;52.388;13.390;2023-01-24T07:31:15;0.38;81.57
57709;SHT35;42558;52.388;13.390;2023-01-24T07:33:46;0.38;81.18
57709;SHT35;42558;52.388;13.390;2023-01-24T07:36:16;0.38;81.13
57709;SHT35;42558;52.388;13.390;2023-01-24T07:38:46;0.38;81.26
57709;SHT35;42558;52.388;13.390;2023-01-24T07:41:16;0.41;81.30
57709;SHT35;42558;52.388;13.390;2023-01-24T07:43:45;0.45;81.51
57709;SHT35;42558;52.388;13.390;2023-01-24T07:46:15;0.48;81.42
57709;SHT35;42558;52.388;13.390;2023-01-24T07:48:45;0.50;81.24
57709;SHT35;42558;52.388;13.390;2023-01-24T07:51:15;0.50;81.16
57709;SHT35;42558;52.388;13.390;2023-01-24T07:53:46;0.54;81.21
57709;SHT35;42558;52.388;13.390;2023-01-24T07:56:17;0.57;81.25
57709;SHT35;42558;52.388;13.390;2023-01-24T07:58:54;0.51;80.89
57709;SHT35;42558;52.388;13.390;2023-01-24T08:01:25;0.47;80.90
57709;SHT35;42558;52.388;13.390;2023-01-24T08:03:56;0.43;80.96
57709;SHT35;42558;52.388;13.390;2023-01-24T08:06:27;0.43;80.95
57709;SHT35;42558;52.388;13.390;2023-01-24T08:08:57;0.45;81.16
57709;SHT35;42558;52.388;13.390;2023-01-24T08:11:27;0.50;81.09
57709;SHT35;42558;52.388;13.390;2023-01-24T08:13:57;0.53;81.12
57709;SHT35;42558;52.388;13.390;2023-01-24T08:16:27;0.57;81.16
57709;SHT35;42558;52.388;13.390;2023-01-24T08:18:57;0.59;81.37
57709;SHT35;42558;52.388;13.390;2023-01-24T08:21:26;0.58;81.31
57709;SHT35;42558;52.388;13.390;2023-01-24T08:23:56;0.56;81.27
57709;SHT35;42558;52.388;13.390;2023-01-24T08:26:26;0.61;81.41
57709;SHT35;42558;52.388;13.390;2023-01-24T08:28:56;0.63;81.29
57709;SHT35;42558;52.388;13.390;2023-01-24T08:31:26;0.64;81.32
57709;SHT35;42558;52.388;13.390;2023-01-24T08:33:56;0.63;81.28
57709;SHT35;42558;52.388;13.390;2023-01-24T08:36:26;0.70;81.37
57709;SHT35;42558;52.388;13.390;2023-01-24T08:38:56;0.76;81.33
57709;SHT35;42558;52.388;13.390;2023-01-24T08:41:35;0.80;81.15
57709;SHT35;42558;52.388;13.390;2023-01-24T08:44:05;0.74;80.64
57709;SHT35;42558;52.388;13.390;2023-01-24T08:46:35;0.69;80.93
57709;SHT35;42558;52.388;13.390;2023-01-24T08:49:05;0.75;81.03
57709;SHT35;42558;52.388;13.390;2023-01-24T08:51:35;0.71;80.96
57709;SHT35;42558;52.388;13.390;2023-01-24T08:54:05;0.78;81.04
57709;SHT35;42558;52.388;13.390;2023-01-24T08:56:35;0.82;80.94
57709;SHT35;42558;52.388;13.390;2023-01-24T08:59:05;0.81;80.68
57709;SHT35;42558;52.388;13.390;2023-01-24T09:01:35;0.77;80.82
57709;SHT35;42558;52.388;13.390;2023-01-24T09:04:05;0.76;80.70
57709;SHT35;42558;52.388;13.390;2023-01-24T09:06:35;0.82;80.62
57709;SHT35;42558;52.388;13.390;2023-01-24T09:09:05;0.84;80.27
57709;SHT35;42558;52.388;13.390;2023-01-24T09:11:35;0.85;80.14
57709;SHT35;42558;52.388;13.390;2023-01-24T09:14:05;0.79;80.26
57709;SHT35;42558;52.388;13.390;2023-01-24T09:16:35;0.80;80.19
57709;SHT35;42558;52.388;13.390;2023-01-24T09:19:04;0.86;80.12
57709;SHT35;42558;52.388;13.390;2023-01-24T09:21:34;0.91;80.10
57709;SHT35;42558;52.388;13.390;2023-01-24T09:24:04;0.96;80.09
57709;SHT35;42558;52.388;13.390;2023-01-24T09:26:35;1.00;80.01
57709;SHT35;42558;52.388;13.390;2023-01-24T09:29:05;1.02;79.83
57709;SHT35;42558;52.388;13.390;2023-01-24T09:31:35;0.98;79.87
57709;SHT35;42558;52.388;13.390;2023-01-24T09:34:05;1.07;80.25
57709;SHT35;42558;52.388;13.390;2023-01-24T09:36:34;1.00;79.73
57709;SHT35;42558;52.388;13.390;2023-01-24T09:39:04;1.00;80.21
57709;SHT35;42558;52.388;13.390;2023-01-24T09:41:41;1.11;80.19
57709;SHT35;42558;52.388;13.390;2023-01-24T09:47:43;1.11;79.68
57709;SHT35;42558;52.388;13.390;2023-01-24T09:50:25;1.23;79.61
57709;SHT35;42558;52.388;13.390;2023-01-24T09:53:08;1.26;79.44
57709;SHT35;42558;52.388;13.390;2023-01-24T09:56:17;1.27;79.15
57709;SHT35;42558;52.388;13.390;2023-01-24T09:59:09;1.25;79.16
57709;SHT35;42558;52.388;13.390;2023-01-24T10:01:48;1.24;79.24
57709;SHT35;42558;52.388;13.390;2023-01-24T10:04:25;1.37;79.58
57709;SHT35;42558;52.388;13.390;2023-01-24T10:07:10;1.42;79.37
57709;SHT35;42558;52.388;13.390;2023-01-24T10:26:01;1.45;78.19
57709;SHT35;42558;52.388;13.390;2023-01-24T10:28:43;1.35;78.84
57709;SHT35;42558;52.388;13.390;2023-01-24T10:31:26;1.45;78.94
57709;SHT35;42558;52.388;13.390;2023-01-24T10:34:20;1.59;78.84
57709;SHT35;42558;52.388;13.390;2023-01-24T10:37:12;1.58;78.29
57709;SHT35;42558;52.388;13.390;2023-01-24T10:39:58;1.60;78.64
57709;SHT35;42558;52.388;13.390;2023-01-24T10:42:30;1.61;78.49
57709;SHT35;42558;52.388;13.390;2023-01-24T10:45:12;1.53;78.36
57709;SHT35;42558;52.388;13.390;2023-01-24T10:51:19;1.46;79.35
57709;SHT35;42558;52.388;13.390;2023-01-24T10:53:49;1.59;78.89
57709;SHT35;42558;52.388;13.390;2023-01-24T10:56:19;1.64;78.63
57709;SHT35;42558;52.388;13.390;2023-01-24T11:01:35;1.62;78.69
57709;SHT35;42558;52.388;13.390;2023-01-24T11:04:24;1.64;78.78
57709;SHT35;42558;52.388;13.390;2023-01-24T11:06:56;1.64;78.34
57709;SHT35;42558;52.388;13.390;2023-01-24T11:09:27;1.50;78.79
57709;SHT35;42558;52.388;13.390;2023-01-24T11:11:59;1.51;78.83
57709;SHT35;42558;52.388;13.390;2023-01-24T11:14:30;1.54;78.54
57709;SHT35;42558;52.388;13.390;2023-01-24T11:17:04;1.52;79.02
57709;SHT35;42558;52.388;13.390;2023-01-24T11:20:19;1.72;79.06
57709;SHT35;42558;52.388;13.390;2023-01-24T11:23:04;1.75;78.47
57709;SHT35;42558;52.388;13.390;2023-01-24T11:25:54;1.84;78.71
57709;SHT35;42558;52.388;13.390;2023-01-24T11:28:34;1.82;78.24
57709;SHT35;42558;52.388;13.390;2023-01-24T11:31:19;1.79;78.36
57709;SHT35;42558;52.388;13.390;2023-01-24T11:34:22;1.88;78.49
57709;SHT35;42558;52.388;13.390;2023-01-24T12:14:09;1.91;78.42
57709;SHT35;42558;52.388;13.390;2023-01-24T12:23:34;1.97;78.33
57709;SHT35;42558;52.388;13.390;2023-01-24T12:26:22;1.95;78.23
57709;SHT35;42558;52.388;13.390;2023-01-24T12:29:12;1.87;78.31
57709;SHT35;42558;52.388;13.390;2023-01-24T12:32:03;1.98;78.72
57709;SHT35;42558;52.388;13.390;2023-01-24T12:35:19;2.04;78.15
57709;SHT35;42558;52.388;13.390;2023-01-24T12:50:15;1.87;78.50
57709;SHT35;42558;52.388;13.390;2023-01-24T12:59:18;1.85;78.96
57709;SHT35;42558;52.388;13.390;2023-01-24T13:11:23;1.97;78.79
57709;SHT35;42558;52.388;13.390;2023-01-24T13:23:58;1.87;78.79
57709;SHT35;42558;52.388;13.390;2023-01-24T13:26:54;1.95;78.80
57709;SHT35;42558;52.388;13.390;2023-01-24T13:33:30;1.98;78.83
57709;SHT35;42558;52.388;13.390;2023-01-24T13:36:12;2.04;78.62
57709;SHT35;42558;52.388;13.390;2023-01-24T13:38:52;2.03;78.32
57709;SHT35;42558;52.388;13.390;2023-01-24T13:43:56;2.03;78.35
57709;SHT35;42558;52.388;13.390;2023-01-24T13:51:48;2.02;78.27
57709;SHT35;42558;52.388;13.390;2023-01-24T14:02:54;2.06;78.53
57709;SHT35;42558;52.388;13.390;2023-01-24T14:05:51;2.05;78.39
57709;SHT35;42558;52.388;13.390;2023-01-24T14:08:47;2.04;78.22
57709;SHT35;42558;52.388;13.390;2023-01-24T14:11:32;2.06;78.84
57709;SHT35;42558;52.388;13.390;2023-01-24T14:17:00;2.04;78.79
57709;SHT35;42558;52.388;13.390;2023-01-24T14:19:35;2.07;78.30
57709;SHT35;42558;52.388;13.390;2023-01-24T14:27:53;1.99;78.47
57709;SHT35;42558;52.388;13.390;2023-01-24T14:30:38;1.92;78.72
57709;SHT35;42558;52.388;13.390;2023-01-24T14:33:49;1.94;78.94
57709;SHT35;42558;52.388;13.390;2023-01-24T14:39:16;2.02;78.80
57709;SHT35;42558;52.388;13.390;2023-01-24T14:42:02;2.03;78.96
57709;SHT35;42558;52.388;13.390;2023-01-24T14:44:50;2.04;79.24
57709;SHT35;42558;52.388;13.390;2023-01-24T14:47:25;1.98;79.00
57709;SHT35;42558;52.388;13.390;2023-01-24T14:49:58;1.99;79.21
57709;SHT35;42558;52.388;13.390;2023-01-24T14:52:32;1.92;79.02
57709;SHT35;42558;52.388;13.390;2023-01-24T14:55:28;1.95;79.57
57709;SHT35;42558;52.388;13.390;2023-01-24T15:00:59;1.75;79.48
57709;SHT35;42558;52.388;13.390;2023-01-24T15:03:30;1.83;79.76
57709;SHT35;42558;52.388;13.390;2023-01-24T15:06:04;1.85;79.65
57709;SHT35;42558;52.388;13.390;2023-01-24T15:08:45;1.88;79.70
57709;SHT35;42558;52.388;13.390;2023-01-24T15:11:19;1.86;79.71
57709;SHT35;42558;52.388;13.390;2023-01-24T15:14:00;1.85;79.81
57709;SHT35;42558;52.388;13.390;2023-01-24T15:16:35;1.83;79.75
57709;SHT35;42558;52.388;13.390;2023-01-24T15:21:53;1.81;80.25
57709;SHT35;42558;52.388;13.390;2023-01-24T15:24:29;1.80;80.39
57709;SHT35;42558;52.388;13.390;2023-01-24T15:27:02;1.82;80.43
57709;SHT35;42558;52.388;13.390;2023-01-24T15:30:12;1.84;80.36
57709;SHT35;42558;52.388;13.390;2023-01-24T15:32:48;1.81;80.39
57709;SHT35;42558;52.388;13.390;2023-01-24T15:38:15;1.78;80.39
57709;SHT35;42558;52.388;13.390;2023-01-24T15:46:37;1.76;80.23
57709;SHT35;42558;52.388;13.390;2023-01-24T15:49:37;1.79;80.31
57709;SHT35;42558;52.388;13.390;2023-01-24T15:52:14;1.78;80.22
57709;SHT35;42558;52.388;13.390;2023-01-24T15:54:55;1.76;80.32
57709;SHT35;42558;52.388;13.390;2023-01-24T15:57:30;1.71;80.22
57709;SHT35;42558;52.388;13.390;2023-01-24T16:02:37;1.69;80.70
57709;SHT35;42558;52.388;13.390;2023-01-24T16:05:11;1.70;80.65
57709;SHT35;42558;52.388;13.390;2023-01-24T16:07:44;1.68;80.70
57709;SHT35;42558;52.388;13.390;2023-01-24T16:10:15;1.67;80.63
57709;SHT35;42558;52.388;13.390;2023-01-24T16:12:46;1.70;80.75
57709;SHT35;42558;52.388;13.390;2023-01-24T16:15:18;1.70;80.81
57709;SHT35;42558;52.388;13.390;2023-01-24T16:17:50;1.65;80.83
57709;SHT35;42558;52.388;13.390;2023-01-24T16:20:21;1.60;80.95
57709;SHT35;42558;52.388;13.390;2023-01-24T16:22:52;1.64;81.35
57709;SHT35;42558;52.388;13.390;2023-01-24T16:25:23;1.65;81.24
57709;SHT35;42558;52.388;13.390;2023-01-24T16:27:53;1.65;80.99
57709;SHT35;42558;52.388;13.390;2023-01-24T16:30:25;1.65;80.94
57709;SHT35;42558;52.388;13.390;2023-01-24T16:32:56;1.68;81.07
57709;SHT35;42558;52.388;13.390;2023-01-24T16:35:24;1.72;81.20
57709;SHT35;42558;52.388;13.390;2023-01-24T16:37:52;1.72;81.07
57709;SHT35;42558;52.388;13.390;2023-01-24T16:40:21;1.69;80.92
57709;SHT35;42558;52.388;13.390;2023-01-24T16:42:49;1.72;81.21
57709;SHT35;42558;52.388;13.390;2023-01-24T16:45:18;1.75;81.37
57709;SHT35;42558;52.388;13.390;2023-01-24T16:47:49;1.75;81.26
57709;SHT35;42558;52.388;13.390;2023-01-24T16:50:17;1.75;81.28
57709;SHT35;42558;52.388;13.390;2023-01-24T16:52:46;1.77;81.24
57709;SHT35;42558;52.388;13.390;2023-01-24T16:55:14;1.80;81.22
57709;SHT35;42558;52.388;13.390;2023-01-24T16:57:43;1.76;80.75
57709;SHT35;42558;52.388;13.390;2023-01-24T17:00:12;1.75;80.84
57709;SHT35;42558;52.388;13.390;2023-01-24T17:02:43;1.74;80.89
57709;SHT35;42558;52.388;13.390;2023-01-24T17:05:18;1.75;80.90
57709;SHT35;42558;52.388;13.390;2023-01-24T17:07:48;1.75;80.96
57709;SHT35;42558;52.388;13.390;2023-01-24T17:10:19;1.75;80.89
57709;SHT35;42558;52.388;13.390;2023-01-24T17:12:49;1.77;81.01
57709;SHT35;42558;52.388;13.390;2023-01-24T17:15:19;1.74;81.09
57709;SHT35;42558;52.388;13.390;2023-01-24T17:17:49;1.72;81.24
57709;SHT35;42558;52.388;13.390;2023-01-24T17:20:19;1.74;81.35
57709;SHT35;42558;52.388;13.390;2023-01-24T17:22:49;1.74;81.31
57709;SHT35;42558;52.388;13.390;2023-01-24T17:25:18;1.73;81.45
57709;SHT35;42558;52.388;13.390;2023-01-24T17:27:48;1.73;81.61
57709;SHT35;42558;52.388;13.390;2023-01-24T17:30:18;1.74;81.57
57709;SHT35;42558;52.388;13.390;2023-01-24T17:32:48;1.75;81.43
57709;SHT35;42558;52.388;13.390;2023-01-24T17:35:18;1.74;81.36
57709;SHT35;42558;52.388;13.390;2023-01-24T17:37:48;1.74;81.36
57709;SHT35;42558;52.388;13.390;2023-01-24T17:40:18;1.76;81.37
57709;SHT35;42558;52.388;13.390;2023-01-24T17:42:47;1.79;81.27
57709;SHT35;42558;52.388;13.390;2023-01-24T17:45:17;1.80;80.87
57709;SHT35;42558;52.388;13.390;2023-01-24T17:47:47;1.84;80.98
57709;SHT35;42558;52.388;13.390;2023-01-24T17:50:17;1.85;80.96
57709;SHT35;42558;52.388;13.390;2023-01-24T17:52:47;1.89;81.03
57709;SHT35;42558;52.388;13.390;2023-01-24T17:55:17;1.88;80.93
57709;SHT35;42558;52.388;13.390;2023-01-24T17:57:47;1.87;81.03
57709;SHT35;42558;52.388;13.390;2023-01-24T18:00:17;1.87;81.20
57709;SHT35;42558;52.388;13.390;2023-01-24T18:02:48;1.90;81.12
57709;SHT35;42558;52.388;13.390;2023-01-24T18:05:17;1.92;80.77
57709;SHT35;42558;52.388;13.390;2023-01-24T18:07:47;1.92;80.72
57709;SHT35;42558;52.388;13.390;2023-01-24T18:10:17;1.90;80.63
57709;SHT35;42558;52.388;13.390;2023-01-24T18:12:47;1.91;80.62
57709;SHT35;42558;52.388;13.390;2023-01-24T18:15:17;1.92;80.72
57709;SHT35;42558;52.388;13.390;2023-01-24T18:17:47;1.93;80.94
57709;SHT35;42558;52.388;13.390;2023-01-24T18:20:17;1.96;81.03
57709;SHT35;42558;52.388;13.390;2023-01-24T18:22:47;1.96;81.00
57709;SHT35;42558;52.388;13.390;2023-01-24T18:25:17;1.94;80.90
57709;SHT35;42558;52.388;13.390;2023-01-24T18:27:47;1.97;80.73
57709;SHT35;42558;52.388;13.390;2023-01-24T18:30:17;1.99;80.59
57709;SHT35;42558;52.388;13.390;2023-01-24T18:32:47;1.98;80.46
57709;SHT35;42558;52.388;13.390;2023-01-24T18:35:17;1.99;80.61
57709;SHT35;42558;52.388;13.390;2023-01-24T18:37:47;2.00;80.56
57709;SHT35;42558;52.388;13.390;2023-01-24T18:40:17;1.97;80.49
57709;SHT35;42558;52.388;13.390;2023-01-24T18:42:48;1.96;80.46
57709;SHT35;42558;52.388;13.390;2023-01-24T18:45:18;1.96;80.41
57709;SHT35;42558;52.388;13.390;2023-01-24T18:47:48;1.97;80.43
57709;SHT35;42558;52.388;13.390;2023-01-24T18:50:17;1.94;80.41
57709;SHT35;42558;52.388;13.390;2023-01-24T18:52:51;1.97;80.56
57709;SHT35;42558;52.388;13.390;2023-01-24T18:55:23;2.01;80.74
57709;SHT35;42558;52.388;13.390;2023-01-24T18:57:52;2.02;80.85
57709;SHT35;42558;52.388;13.390;2023-01-24T19:00:22;2.00;80.84
57709;SHT35;42558;52.388;13.390;2023-01-24T19:02:55;1.93;80.86